Legend Of The Seas — C6SL5 — position and weather

sailwx.info

Track history (hours):
 
Tides and Currents Weather Stations Pressure Air Temp Water Temp Dewpoint Dewpoint Depression Visibility Wind Speed Wind Dir Waves Ship Positions

Legend Of The Seas

Operator: Royal Caribbean Cruises Ltd

Last reported at 2017-Dec-04 02:09 UTC. Time now 2017-Dec-12 04:32 UTC.
Position N 20°42' W 086°51'.
Warning: this ship's position is 8 days out of date.

Type: Passenger vessel. MMSI: 311378000.

Date/timePositionNaut miles runAvg speedWind from/ knotsBaromVisibWave heightAir tempDewpointWater temp
2017-Dec-04 02:09N 20°42' W 086°51'216.4
2017-Dec-04 02:00N 20°40' W 086°53'815.8
2017-Dec-04 01:30N 20°34' W 086°57'3 5.7
2017-Dec-04 00:58N 20°31' W 086°57'0 0.0
2017-Dec-04 00:28N 20°31' W 086°57'0 0.0
2017-Dec-03 23:58N 20°31' W 086°57'0 0.0
2017-Dec-03 23:28N 20°31' W 086°57'0 0.0
2017-Dec-03 22:58N 20°31' W 086°57'0 0.0
2017-Dec-03 22:28N 20°31' W 086°57'0 0.0
2017-Dec-03 21:58N 20°31' W 086°57'0 0.0
2017-Dec-03 21:28N 20°31' W 086°57'0 0.0
2017-Dec-03 20:58N 20°31' W 086°57'0 0.0
2017-Dec-03 20:28N 20°31' W 086°57'0 0.0
2017-Dec-03 19:58N 20°31' W 086°57'0 0.0
2017-Dec-03 19:28N 20°31' W 086°57'0 0.0
2017-Dec-03 18:58N 20°31' W 086°57'0 0.0
2017-Dec-03 18:28N 20°31' W 086°57'0 0.0
2017-Dec-03 17:58N 20°31' W 086°57'0 0.0
2017-Dec-03 17:28N 20°31' W 086°57'0 0.0
2017-Dec-03 16:58N 20°31' W 086°57'0 0.0
2017-Dec-03 16:28N 20°31' W 086°57'0 0.0
2017-Dec-03 15:58N 20°31' W 086°57'0 0.0
2017-Dec-03 15:28N 20°31' W 086°57'0 0.0
2017-Dec-03 14:58N 20°31' W 086°57'0 0.0
2017-Dec-03 14:28N 20°31' W 086°57'0 0.0
2017-Dec-03 13:58N 20°31' W 086°57'0 0.0
2017-Dec-03 13:28N 20°31' W 086°57'0 0.0
2017-Dec-03 13:00N 20°31' W 086°57'1 1.3
2017-Dec-03 12:31N 20°31' W 086°57'4 8.3
2017-Dec-03 12:01N 20°35' W 086°57'  
2017-Nov-27 01:01N 10°26' W 075°47'118.7
2017-Nov-27 00:59N 10°25' W 075°47'917.9
2017-Nov-27 00:29N 10°19' W 075°41'612.8
2017-Nov-27 00:00N 10°19' W 075°34'4 7.8
2017-Nov-26 23:30N 10°22' W 075°32'2 3.4
2017-Nov-26 22:58N 10°24' W 075°32'0 0.0
2017-Nov-26 22:28N 10°24' W 075°32'0 0.0
2017-Nov-26 21:58N 10°24' W 075°32'0 0.0
2017-Nov-26 21:28N 10°24' W 075°32'0 0.0
2017-Nov-26 20:58N 10°24' W 075°32'0 0.0
2017-Nov-26 20:28N 10°24' W 075°32'0 0.0
2017-Nov-26 19:58N 10°24' W 075°32'0 0.0
2017-Nov-26 19:28N 10°24' W 075°32'0 0.0
2017-Nov-26 18:58N 10°24' W 075°32'0 0.0
2017-Nov-26 18:28N 10°24' W 075°32'0 0.0
2017-Nov-26 17:58N 10°24' W 075°32'0 0.0
2017-Nov-26 17:28N 10°24' W 075°32'0 0.0
2017-Nov-26 16:52N 10°24' W 075°32'0 0.0
2017-Nov-26 16:28N 10°24' W 075°32'0 0.0
2017-Nov-26 15:58N 10°24' W 075°32'0 0.5
2017-Nov-26 15:29N 10°24' W 075°32'2 4.7
2017-Nov-26 15:00N 10°22' W 075°32'4 8.4
2017-Nov-26 14:30N 10°19' W 075°35'611.7
2017-Nov-26 14:00N 10°18' W 075°41'  
Track history (hours):
 
Tides and Currents Weather Stations Pressure Air Temp Water Temp Dewpoint Dewpoint Depression Visibility Wind Speed Wind Dir Waves Ship Positions

Legend Of The Seas

Operator: Royal Caribbean Cruises Ltd

Last reported at 2017-Dec-04 02:09 UTC. Time now 2017-Dec-12 04:32 UTC.
Position N 20°42' W 086°51'.
Warning: this ship's position is 8 days out of date.

Type: Passenger vessel. MMSI: 311378000.

Date/timePositionNaut miles runAvg speedWind from/ knotsBaromVisibWave heightAir tempDewpointWater temp
2017-Dec-04 02:09N 20°42' W 086°51'216.4
2017-Dec-04 02:00N 20°40' W 086°53'815.8
2017-Dec-04 01:30N 20°34' W 086°57'3 5.7
2017-Dec-04 00:58N 20°31' W 086°57'0 0.0
2017-Dec-04 00:28N 20°31' W 086°57'0 0.0
2017-Dec-03 23:58N 20°31' W 086°57'0 0.0
2017-Dec-03 23:28N 20°31' W 086°57'0 0.0
2017-Dec-03 22:58N 20°31' W 086°57'0 0.0
2017-Dec-03 22:28N 20°31' W 086°57'0 0.0
2017-Dec-03 21:58N 20°31' W 086°57'0 0.0
2017-Dec-03 21:28N 20°31' W 086°57'0 0.0
2017-Dec-03 20:58N 20°31' W 086°57'0 0.0
2017-Dec-03 20:28N 20°31' W 086°57'0 0.0
2017-Dec-03 19:58N 20°31' W 086°57'0 0.0
2017-Dec-03 19:28N 20°31' W 086°57'0 0.0
2017-Dec-03 18:58N 20°31' W 086°57'0 0.0
2017-Dec-03 18:28N 20°31' W 086°57'0 0.0
2017-Dec-03 17:58N 20°31' W 086°57'0 0.0
2017-Dec-03 17:28N 20°31' W 086°57'0 0.0
2017-Dec-03 16:58N 20°31' W 086°57'0 0.0
2017-Dec-03 16:28N 20°31' W 086°57'0 0.0
2017-Dec-03 15:58N 20°31' W 086°57'0 0.0
2017-Dec-03 15:28N 20°31' W 086°57'0 0.0
2017-Dec-03 14:58N 20°31' W 086°57'0 0.0
2017-Dec-03 14:28N 20°31' W 086°57'0 0.0
2017-Dec-03 13:58N 20°31' W 086°57'0 0.0
2017-Dec-03 13:28N 20°31' W 086°57'0 0.0
2017-Dec-03 13:00N 20°31' W 086°57'1 1.3
2017-Dec-03 12:31N 20°31' W 086°57'4 8.3
2017-Dec-03 12:01N 20°35' W 086°57'  
2017-Nov-27 01:01N 10°26' W 075°47'118.7
2017-Nov-27 00:59N 10°25' W 075°47'917.9
2017-Nov-27 00:29N 10°19' W 075°41'612.8
2017-Nov-27 00:00N 10°19' W 075°34'4 7.8
2017-Nov-26 23:30N 10°22' W 075°32'2 3.4
2017-Nov-26 22:58N 10°24' W 075°32'0 0.0
2017-Nov-26 22:28N 10°24' W 075°32'0 0.0
2017-Nov-26 21:58N 10°24' W 075°32'0 0.0
2017-Nov-26 21:28N 10°24' W 075°32'0 0.0
2017-Nov-26 20:58N 10°24' W 075°32'0 0.0
2017-Nov-26 20:28N 10°24' W 075°32'0 0.0
2017-Nov-26 19:58N 10°24' W 075°32'0 0.0
2017-Nov-26 19:28N 10°24' W 075°32'0 0.0
2017-Nov-26 18:58N 10°24' W 075°32'0 0.0
2017-Nov-26 18:28N 10°24' W 075°32'0 0.0
2017-Nov-26 17:58N 10°24' W 075°32'0 0.0
2017-Nov-26 17:28N 10°24' W 075°32'0 0.0
2017-Nov-26 16:52N 10°24' W 075°32'0 0.0
2017-Nov-26 16:28N 10°24' W 075°32'0 0.0
2017-Nov-26 15:58N 10°24' W 075°32'0 0.5
2017-Nov-26 15:29N 10°24' W 075°32'2 4.7
2017-Nov-26 15:00N 10°22' W 075°32'4 8.4
2017-Nov-26 14:30N 10°19' W 075°35'611.7
2017-Nov-26 14:00N 10°18' W 075°41'  

Dump ship's entire track history